createdAt,value
2022-09-25T00:01:42.806Z,98076.19
2022-09-25T00:04:09.515Z,98073.06
2022-09-25T00:06:36.286Z,98070.41
2022-09-25T00:09:05.129Z,98072.50
2022-09-25T00:11:33.968Z,98074.81
2022-09-25T00:14:01.905Z,98076.69
2022-09-25T00:16:30.786Z,98073.16
2022-09-25T00:19:14.018Z,98066.25
2022-09-25T00:21:41.333Z,98066.56
2022-09-25T00:24:09.991Z,98074.03
2022-09-25T00:26:40.441Z,98070.59
2022-09-25T00:29:08.766Z,98071.63
2022-09-25T00:31:35.604Z,98079.09
2022-09-25T00:34:05.106Z,98063.16
2022-09-25T00:36:32.448Z,98059.44
2022-09-25T00:39:00.078Z,98055.19
2022-09-25T00:41:28.217Z,98057.84
2022-09-25T00:43:57.212Z,98059.94
2022-09-25T00:46:23.842Z,98053.28
2022-09-25T00:48:56.249Z,98051.91
2022-09-25T00:51:29.650Z,98050.84
2022-09-25T00:54:01.573Z,98051.66
2022-09-25T00:56:31.850Z,98048.13
2022-09-25T00:58:58.850Z,98044.97
2022-09-25T01:01:25.627Z,98040.47
2022-09-25T01:03:52.483Z,98044.19
2022-09-25T01:06:19.720Z,98036.94
2022-09-25T01:08:47.182Z,98032.94
2022-09-25T01:11:13.839Z,98032.94
2022-09-25T01:13:40.618Z,98033.50
2022-09-25T01:16:24.169Z,98044.13
2022-09-25T01:19:14.483Z,98035.59
2022-09-25T01:22:11.630Z,98036.63
2022-09-25T01:24:55.258Z,98045.66
2022-09-25T01:27:33.018Z,98052.81
2022-09-25T01:30:06.018Z,98052.50
2022-09-25T01:32:44.850Z,98047.94
2022-09-25T01:35:12.439Z,98051.44
2022-09-25T01:38:00.952Z,98051.44
2022-09-25T01:40:33.736Z,98045.59
2022-09-25T01:43:01.635Z,98034.47
2022-09-25T01:45:36.598Z,98035.03
2022-09-25T01:48:06.153Z,98025.19
2022-09-25T01:50:47.121Z,98026.81
2022-09-25T01:53:24.778Z,98029.22
2022-09-25T01:55:59.394Z,98026.00
2022-09-25T01:58:32.546Z,98020.44
2022-09-25T02:01:06.370Z,98026.81
2022-09-25T02:03:39.918Z,98020.44
2022-09-25T02:06:10.145Z,98019.63
2022-09-25T02:08:44.134Z,98007.91
2022-09-25T02:11:12.216Z,98016.91
2022-09-25T02:13:58.172Z,98007.91
2022-09-25T02:16:35.539Z,98011.59
2022-09-25T02:19:18.102Z,98000.97
2022-09-25T02:21:52.636Z,98007.13
2022-09-25T02:24:25.179Z,98013.22
2022-09-25T02:26:52.454Z,98015.09
2022-09-25T02:29:20.260Z,98022.78
2022-09-25T02:31:53.944Z,98023.06
2022-09-25T02:34:22.061Z,98024.09
2022-09-25T02:36:48.718Z,98021.69
2022-09-25T02:39:20.732Z,98019.56
2022-09-25T02:42:06.754Z,98016.13
2022-09-25T02:44:54.327Z,98021.44
2022-09-25T02:47:39.828Z,98005.69
2022-09-25T02:50:07.408Z,98011.47
2022-09-25T02:52:46.893Z,98008.25
2022-09-25T02:55:14.506Z,98004.56
2022-09-25T02:57:51.606Z,98007.44
2022-09-25T03:00:22.832Z,98000.53
2022-09-25T03:02:53.725Z,97996.81
2022-09-25T03:05:21.430Z,97997.88
2022-09-25T03:08:03.391Z,97998.94
2022-09-25T03:10:33.897Z,97996.59
2022-09-25T03:13:17.581Z,98000.28
2022-09-25T03:15:47.091Z,98005.03
2022-09-25T03:18:14.787Z,98011.97
2022-09-25T03:20:41.431Z,98003.19
2022-09-25T03:23:08.009Z,97994.72
2022-09-25T03:25:34.705Z,97997.13
2022-09-25T03:28:01.503Z,97981.72
2022-09-25T03:30:29.387Z,97990.72
2022-09-25T03:32:56.236Z,97985.91
2022-09-25T03:35:23.068Z,97981.88
2022-09-25T03:37:49.746Z,97987.66
2022-09-25T03:40:16.434Z,97988.81
2022-09-25T03:42:44.064Z,97983.25
2022-09-25T03:45:11.517Z,97988.06
2022-09-25T03:47:38.435Z,97970.25
2022-09-25T03:50:05.448Z,97982.25
2022-09-25T03:52:32.051Z,97973.50
2022-09-25T03:54:58.675Z,97971.63
2022-09-25T03:57:25.928Z,97973.25
2022-09-25T03:59:52.769Z,97981.13
2022-09-25T04:02:19.665Z,97986.38
2022-09-25T04:04:46.502Z,97978.72
2022-09-25T04:07:13.356Z,97978.97
2022-09-25T04:09:40.139Z,97985.34
2022-09-25T04:12:07.440Z,97988.25
2022-09-25T04:14:34.049Z,97985.59
2022-09-25T04:17:00.715Z,97989.28
2022-09-25T04:19:27.309Z,97983.19
2022-09-25T04:21:53.921Z,97986.88
2022-09-25T04:24:35.753Z,97983.69
2022-09-25T04:27:02.359Z,97989.22
2022-09-25T04:29:29.093Z,97984.16
2022-09-25T04:32:12.061Z,97984.16
2022-09-25T04:34:38.690Z,97980.38
2022-09-25T04:37:05.315Z,97988.59
2022-09-25T04:39:31.966Z,97989.38
2022-09-25T04:41:58.613Z,97991.00
2022-09-25T04:44:25.222Z,97979.59
2022-09-25T04:46:52.551Z,97983.28
2022-09-25T04:49:19.264Z,97991.78
2022-09-25T04:51:45.926Z,97995.25
2022-09-25T04:54:14.890Z,97991.00
2022-09-25T04:56:43.389Z,97999.47
2022-09-25T04:59:11.831Z,98002.13
2022-09-25T05:01:39.021Z,98001.53
2022-09-25T05:04:08.680Z,98008.22
2022-09-25T05:06:35.650Z,98002.66
2022-09-25T05:09:03.221Z,98007.44
2022-09-25T05:11:29.917Z,98010.53
2022-09-25T05:13:56.502Z,98007.34
2022-09-25T05:16:23.155Z,98003.16
2022-09-25T05:18:49.824Z,98003.72
2022-09-25T05:21:16.458Z,97994.69
2022-09-25T05:23:43.053Z,97992.84
2022-09-25T05:26:10.969Z,97987.31
2022-09-25T05:28:37.655Z,97985.44
2022-09-25T05:31:05.568Z,97979.66
2022-09-25T05:33:33.951Z,97986.81
2022-09-25T05:36:02.704Z,97986.00
2022-09-25T05:38:31.441Z,97989.22
2022-09-25T05:41:03.581Z,97990.81
2022-09-25T05:43:31.428Z,97993.72
2022-09-25T05:45:58.840Z,97987.38
2022-09-25T05:48:26.069Z,97978.91
2022-09-25T05:50:57.348Z,97978.66
2022-09-25T05:53:28.312Z,97985.84
2022-09-25T05:55:58.319Z,97995.16
2022-09-25T05:58:26.814Z,98003.75
2022-09-25T06:00:54.991Z,98004.25
2022-09-25T06:03:22.211Z,98005.03
2022-09-25T06:05:48.959Z,97999.25
2022-09-25T06:08:15.582Z,97998.94
2022-09-25T06:10:42.668Z,97994.41
2022-09-25T06:13:09.327Z,97994.41
2022-09-25T06:15:38.598Z,97994.16
2022-09-25T06:18:06.058Z,97996.59
2022-09-25T06:20:33.205Z,97993.44
2022-09-25T06:23:01.375Z,97990.53
2022-09-25T06:25:30.590Z,97990.34
2022-09-25T06:28:00.705Z,97992.28
2022-09-25T06:30:34.507Z,97983.56
2022-09-25T06:33:02.030Z,97980.66
2022-09-25T06:35:29.485Z,97975.72
2022-09-25T06:37:58.760Z,97978.44
2022-09-25T06:40:29.181Z,97974.16
2022-09-25T06:42:57.378Z,97970.16
2022-09-25T06:45:25.437Z,97963.84
2022-09-25T06:47:52.334Z,97961.44
2022-09-25T06:50:18.951Z,97965.53
2022-09-25T06:52:45.553Z,97966.34
2022-09-25T06:55:12.139Z,97969.78
2022-09-25T06:57:38.799Z,97977.03
2022-09-25T07:00:06.420Z,97975.16
2022-09-25T07:02:48.585Z,97980.22
2022-09-25T07:05:18.722Z,97986.91
2022-09-25T07:07:46.437Z,97981.66
2022-09-25T07:10:13.103Z,97984.38
2022-09-25T07:12:41.441Z,97982.09
2022-09-25T07:15:08.830Z,97985.88
2022-09-25T07:17:35.444Z,97985.06
2022-09-25T07:20:02.550Z,97989.44
2022-09-25T07:22:30.407Z,97992.94
2022-09-25T07:24:57.044Z,97982.44
2022-09-25T07:27:23.645Z,97978.97
2022-09-25T07:29:51.849Z,97988.50
2022-09-25T07:32:18.502Z,97987.75
2022-09-25T07:34:45.138Z,97990.69
2022-09-25T07:37:12.455Z,97973.94
2022-09-25T07:39:39.062Z,97977.16
2022-09-25T07:42:06.895Z,97975.59
2022-09-25T07:44:38.010Z,97980.72
2022-09-25T07:47:07.308Z,97978.56
2022-09-25T07:49:35.033Z,97966.09
2022-09-25T07:52:02.337Z,97970.16
2022-09-25T07:54:28.923Z,97963.22
2022-09-25T07:56:55.682Z,97952.56
2022-09-25T07:59:22.275Z,97952.56
2022-09-25T08:01:53.651Z,97961.09
2022-09-25T08:04:20.513Z,97967.53
2022-09-25T08:06:47.108Z,97975.06
2022-09-25T08:09:13.702Z,97976.22
2022-09-25T08:11:40.509Z,97976.66
2022-09-25T08:14:07.210Z,97971.41
2022-09-25T08:16:33.973Z,97980.53
2022-09-25T08:19:01.741Z,97980.00
2022-09-25T08:21:28.323Z,97974.13
2022-09-25T08:23:56.514Z,97969.06
2022-09-25T08:26:23.843Z,97972.03
2022-09-25T08:28:51.844Z,97975.84
2022-09-25T08:31:18.548Z,97974.25
2022-09-25T08:33:46.841Z,97976.13
2022-09-25T08:36:13.864Z,97980.69
2022-09-25T08:38:40.695Z,97972.66
2022-09-25T08:41:22.203Z,97984.38
2022-09-25T08:44:19.843Z,97976.63
2022-09-25T08:47:06.943Z,97977.97
2022-09-25T08:49:40.032Z,97975.59
2022-09-25T08:52:13.658Z,97973.97
2022-09-25T08:54:43.410Z,97978.50
2022-09-25T08:57:21.339Z,97971.31
2022-09-25T08:59:59.788Z,97972.13
2022-09-25T09:02:38.616Z,97975.06
2022-09-25T09:05:14.525Z,97969.44
2022-09-25T09:07:46.373Z,97962.50
2022-09-25T09:10:43.377Z,97953.97
2022-09-25T09:13:36.881Z,97944.91
2022-09-25T09:16:08.471Z,97947.28
2022-09-25T09:18:40.612Z,97950.47
2022-09-25T09:21:12.714Z,97953.44
2022-09-25T09:23:53.594Z,97952.91
2022-09-25T09:26:23.196Z,97948.09
2022-09-25T09:29:09.678Z,97949.16
2022-09-25T09:31:52.471Z,97955.53
2022-09-25T09:35:04.249Z,97957.41
2022-09-25T09:37:49.976Z,97955.00
2022-09-25T09:40:40.995Z,97934.75
2022-09-25T09:43:23.184Z,97945.69
2022-09-25T09:45:59.008Z,97955.81
2022-09-25T09:48:34.633Z,97951.31
2022-09-25T09:51:14.447Z,97941.16
2022-09-25T09:53:53.176Z,97935.28
2022-09-25T09:56:35.927Z,97921.69
2022-09-25T09:59:20.852Z,97926.25
2022-09-25T10:02:00.811Z,97920.91
2022-09-25T10:04:34.253Z,97921.97
2022-09-25T10:07:09.812Z,97920.38
2022-09-25T10:09:37.435Z,97917.97
2022-09-25T10:12:12.390Z,97924.13
2022-09-25T10:14:44.784Z,97916.91
2022-09-25T10:17:12.069Z,97920.38
2022-09-25T10:19:49.021Z,97919.03
2022-09-25T10:22:19.367Z,97919.78
2022-09-25T10:25:02.511Z,97923.50
2022-09-25T10:27:36.932Z,97919.00
2022-09-25T10:30:16.278Z,97910.47
2022-09-25T10:33:04.184Z,97900.53
2022-09-25T10:35:43.413Z,97902.97
2022-09-25T10:38:28.545Z,97905.84
2022-09-25T10:41:00.342Z,97901.06
2022-09-25T10:43:26.973Z,97899.97
2022-09-25T10:46:12.550Z,97900.78
2022-09-25T10:48:55.754Z,97888.75
2022-09-25T10:51:23.526Z,97877.78
2022-09-25T10:53:53.216Z,97880.44
2022-09-25T10:56:22.840Z,97879.28
2022-09-25T10:58:55.769Z,97879.25
2022-09-25T11:01:35.405Z,97876.53
2022-09-25T11:04:12.204Z,97878.22
2022-09-25T11:06:45.793Z,97873.59
2022-09-25T11:09:16.438Z,97872.72
2022-09-25T11:11:46.053Z,97868.56
2022-09-25T11:14:32.799Z,97868.81
2022-09-25T11:17:02.151Z,97865.25
2022-09-25T11:19:35.567Z,97874.22
2022-09-25T11:22:07.964Z,97874.47
2022-09-25T11:25:00.861Z,97864.91
2022-09-25T11:27:42.897Z,97859.22
2022-09-25T11:30:12.476Z,97855.47
2022-09-25T11:33:01.748Z,97848.59
2022-09-25T11:35:44.803Z,97851.19
2022-09-25T11:38:42.250Z,97849.03
2022-09-25T11:41:22.971Z,97847.84
2022-09-25T11:44:06.138Z,97852.13
2022-09-25T11:46:35.589Z,97845.03
2022-09-25T11:49:16.216Z,97848.84
2022-09-25T11:52:16.475Z,97841.63
2022-09-25T11:55:14.858Z,97837.00
2022-09-25T11:58:02.372Z,97830.66
2022-09-25T12:00:51.756Z,97825.06
2022-09-25T12:03:51.181Z,97816.66
2022-09-25T12:06:32.542Z,97818.53
2022-09-25T12:09:29.588Z,97824.28
2022-09-25T12:12:11.587Z,97814.75
2022-09-25T12:14:45.716Z,97812.44
2022-09-25T12:17:33.418Z,97808.38
2022-09-25T12:20:11.634Z,97814.03
2022-09-25T12:23:00.230Z,97805.81
2022-09-25T12:25:57.685Z,97806.41
2022-09-25T12:28:41.614Z,97805.00
2022-09-25T12:31:17.527Z,97799.63
2022-09-25T12:34:00.351Z,97809.34
2022-09-25T12:36:36.623Z,97802.41
2022-09-25T12:39:14.131Z,97800.81
2022-09-25T12:41:52.112Z,97799.50
2022-09-25T12:44:20.491Z,97795.31
2022-09-25T12:47:01.938Z,97790.09
2022-09-25T12:49:40.364Z,97792.06
2022-09-25T12:52:14.661Z,97781.34
2022-09-25T12:54:52.154Z,97785.75
2022-09-25T12:57:28.046Z,97784.03
2022-09-25T13:00:03.880Z,97789.44
2022-09-25T13:02:43.922Z,97792.50
2022-09-25T13:05:21.700Z,97791.94
2022-09-25T13:08:03.311Z,97784.31
2022-09-25T13:10:37.107Z,97779.72
2022-09-25T13:13:12.899Z,97780.81
2022-09-25T13:15:42.479Z,97776.84
2022-09-25T13:18:17.490Z,97769.44
2022-09-25T13:20:49.663Z,97767.56
2022-09-25T13:23:33.855Z,97758.66
2022-09-25T13:26:09.009Z,97756.22
2022-09-25T13:28:40.533Z,97750.44
2022-09-25T13:31:23.835Z,97748.25
2022-09-25T13:33:52.581Z,97747.31
2022-09-25T13:36:47.645Z,97741.16
2022-09-25T13:39:32.933Z,97744.66
2022-09-25T13:42:07.893Z,97735.84
2022-09-25T13:44:52.540Z,97736.50
2022-09-25T13:47:34.141Z,97725.88
2022-09-25T13:50:19.176Z,97734.13
2022-09-25T13:53:08.918Z,97736.66
2022-09-25T13:56:02.850Z,97736.97
2022-09-25T13:58:51.519Z,97732.75
2022-09-25T14:01:35.597Z,97728.19
2022-09-25T14:04:10.216Z,97733.13
2022-09-25T14:06:42.055Z,97727.88
2022-09-25T14:09:12.773Z,97728.91
2022-09-25T14:11:43.227Z,97724.34
2022-09-25T14:14:15.876Z,97735.88
2022-09-25T14:16:49.401Z,97732.88
2022-09-25T14:19:34.798Z,97736.44
2022-09-25T14:22:04.482Z,97735.72
2022-09-25T14:24:32.016Z,97729.25
2022-09-25T14:27:01.643Z,97729.34
2022-09-25T14:29:38.953Z,97713.47
2022-09-25T14:32:53.507Z,97721.09
2022-09-25T14:35:12.046Z,97720.00
2022-09-25T14:37:56.663Z,97720.94
2022-09-25T14:40:33.963Z,97715.44
2022-09-25T14:43:20.507Z,97708.84
2022-09-25T14:46:04.461Z,97697.41
2022-09-25T14:48:39.419Z,97698.00
2022-09-25T14:51:11.067Z,97693.13
2022-09-25T14:53:42.626Z,97687.34
2022-09-25T14:56:14.810Z,97692.75
2022-09-25T14:58:47.088Z,97687.16
2022-09-25T15:01:23.042Z,97684.25
2022-09-25T15:03:50.215Z,97685.00
2022-09-25T15:06:26.200Z,97681.50
2022-09-25T15:08:53.048Z,97685.00
2022-09-25T15:11:21.749Z,97683.84
2022-09-25T15:13:48.689Z,97677.50
2022-09-25T15:16:36.590Z,97674.31
2022-09-25T15:19:11.584Z,97683.44
2022-09-25T15:21:42.665Z,97687.53
2022-09-25T15:24:24.508Z,97694.00
2022-09-25T15:27:02.648Z,97698.06
2022-09-25T15:29:33.466Z,97688.97
2022-09-25T15:32:00.699Z,97688.97
2022-09-25T15:34:30.225Z,97677.53
2022-09-25T15:37:29.176Z,97689.59
2022-09-25T15:39:56.542Z,97682.44
2022-09-25T15:42:23.203Z,97685.41
2022-09-25T15:44:50.069Z,97686.25
2022-09-25T15:47:50.492Z,97686.63
2022-09-25T15:50:23.876Z,97676.50
2022-09-25T15:52:54.010Z,97677.63
2022-09-25T15:55:21.397Z,97680.94
2022-09-25T15:57:51.262Z,97682.31
2022-09-25T16:00:36.510Z,97684.44
2022-09-25T16:03:30.119Z,97684.75
2022-09-25T16:05:56.780Z,97690.69
2022-09-25T16:08:24.398Z,97688.53
2022-09-25T16:11:12.747Z,97695.25
2022-09-25T16:13:43.617Z,97689.66
2022-09-25T16:16:29.571Z,97676.31
2022-09-25T16:18:59.054Z,97684.47
2022-09-25T16:21:25.863Z,97684.50
2022-09-25T16:23:58.623Z,97685.66
2022-09-25T16:26:36.270Z,97690.19
2022-09-25T16:29:20.753Z,97683.31
2022-09-25T16:31:48.056Z,97692.41
2022-09-25T16:34:25.861Z,97692.16
2022-09-25T16:36:55.719Z,97698.88
2022-09-25T16:39:24.758Z,97693.81
2022-09-25T16:41:51.945Z,97699.72
2022-09-25T16:44:18.560Z,97695.22
2022-09-25T16:47:07.687Z,97699.28
2022-09-25T16:49:34.625Z,97688.66
2022-09-25T16:52:05.522Z,97687.59
2022-09-25T16:54:33.352Z,97678.84
2022-09-25T16:57:02.296Z,97674.88
2022-09-25T16:59:29.190Z,97677.06
2022-09-25T17:01:59.436Z,97681.88
2022-09-25T17:04:28.486Z,97693.63
2022-09-25T17:06:58.045Z,97696.88
2022-09-25T17:09:26.213Z,97699.28
2022-09-25T17:11:59.345Z,97688.88
2022-09-25T17:14:28.675Z,97695.84
2022-09-25T17:16:56.552Z,97698.81
2022-09-25T17:19:23.928Z,97711.63
2022-09-25T17:21:53.080Z,97713.53
2022-09-25T17:24:23.824Z,97716.75
2022-09-25T17:26:51.992Z,97715.94
2022-09-25T17:29:20.028Z,97713.53
2022-09-25T17:31:46.734Z,97719.72
2022-09-25T17:34:19.836Z,97723.44
2022-09-25T17:36:46.642Z,97722.38
2022-09-25T17:39:13.623Z,97724.47
2022-09-25T17:41:40.543Z,97719.72
2022-09-25T17:44:11.342Z,97713.84
2022-09-25T17:46:38.896Z,97716.03
2022-09-25T17:49:05.995Z,97719.28
2022-09-25T17:51:34.395Z,97727.06
2022-09-25T17:54:02.766Z,97732.91
2022-09-25T17:56:34.692Z,97731.09
2022-09-25T17:59:02.403Z,97726.56
2022-09-25T18:01:35.354Z,97736.19
2022-09-25T18:04:20.228Z,97733.81
2022-09-25T18:06:47.483Z,97736.22
2022-09-25T18:09:14.238Z,97740.47
2022-09-25T18:11:43.535Z,97730.63
2022-09-25T18:14:12.533Z,97739.72
2022-09-25T18:16:41.623Z,97740.25
2022-09-25T18:19:30.866Z,97745.03
2022-09-25T18:22:12.653Z,97749.59
2022-09-25T18:24:40.005Z,97757.59
2022-09-25T18:27:06.687Z,97761.06
2022-09-25T18:29:36.266Z,97758.41
2022-09-25T18:32:03.087Z,97761.63
2022-09-25T18:34:29.793Z,97764.84
2022-09-25T18:36:56.426Z,97765.34
2022-09-25T18:39:23.209Z,97760.56
2022-09-25T18:41:50.615Z,97771.50
2022-09-25T18:44:18.052Z,97772.03
2022-09-25T18:46:45.073Z,97782.19
2022-09-25T18:49:11.947Z,97784.31
2022-09-25T18:51:38.727Z,97784.31
2022-09-25T18:54:05.873Z,97778.44
2022-09-25T18:56:34.643Z,97787.78
2022-09-25T18:59:05.571Z,97777.63
2022-09-25T19:01:33.131Z,97788.56
2022-09-25T19:03:59.837Z,97785.41
2022-09-25T19:06:26.521Z,97776.56
2022-09-25T19:08:55.934Z,97787.50
2022-09-25T19:11:24.887Z,97784.06
2022-09-25T19:13:51.735Z,97787.53
2022-09-25T19:16:20.361Z,97789.91
2022-09-25T19:18:47.389Z,97793.94
2022-09-25T19:21:16.310Z,97785.41
2022-09-25T19:23:43.666Z,97790.19
2022-09-25T19:26:15.077Z,97797.41
2022-09-25T19:28:41.942Z,97791.78
2022-09-25T19:31:15.621Z,97788.06
2022-09-25T19:33:42.644Z,97787.25
2022-09-25T19:36:15.454Z,97793.41
2022-09-25T19:38:43.437Z,97790.16
2022-09-25T19:41:13.226Z,97789.09
2022-09-25T19:43:39.915Z,97784.31
2022-09-25T19:46:06.861Z,97786.41
2022-09-25T19:48:33.858Z,97790.16
2022-09-25T19:51:06.541Z,97798.66
2022-09-25T19:53:34.427Z,97806.66
2022-09-25T19:56:01.435Z,97805.56
2022-09-25T19:58:28.559Z,97806.31
2022-09-25T20:00:56.886Z,97810.09
2022-09-25T20:03:23.873Z,97809.78
2022-09-25T20:05:50.820Z,97811.91
2022-09-25T20:08:17.537Z,97805.78
2022-09-25T20:10:44.723Z,97798.06
2022-09-25T20:13:11.769Z,97795.13
2022-09-25T20:15:38.519Z,97804.72
2022-09-25T20:18:05.498Z,97804.69
2022-09-25T20:20:32.169Z,97811.38
2022-09-25T20:22:59.084Z,97812.97
2022-09-25T20:25:28.053Z,97810.31
2022-09-25T20:27:55.212Z,97812.69
2022-09-25T20:30:24.366Z,97815.34
2022-09-25T20:32:51.958Z,97823.06
2022-09-25T20:35:22.512Z,97825.22
2022-09-25T20:37:49.141Z,97833.19
2022-09-25T20:40:15.994Z,97832.13
2022-09-25T20:42:42.993Z,97827.06
2022-09-25T20:45:10.516Z,97826.22
2022-09-25T20:47:45.113Z,97820.94
2022-09-25T20:50:13.007Z,97818.78
2022-09-25T20:52:40.006Z,97821.44
2022-09-25T20:55:07.213Z,97812.66
2022-09-25T20:57:34.022Z,97803.59
2022-09-25T21:00:02.150Z,97805.47
2022-09-25T21:02:29.459Z,97806.28
2022-09-25T21:04:57.043Z,97809.75
2022-09-25T21:07:25.596Z,97808.94
2022-09-25T21:09:53.784Z,97809.19
2022-09-25T21:12:21.493Z,97812.38
2022-09-25T21:14:49.354Z,97810.00
2022-09-25T21:17:17.145Z,97814.00
2022-09-25T21:19:44.186Z,97814.81
2022-09-25T21:22:11.088Z,97816.63
2022-09-25T21:24:37.930Z,97824.34
2022-09-25T21:27:04.570Z,97817.44
2022-09-25T21:29:32.026Z,97821.41
2022-09-25T21:31:58.823Z,97817.38
2022-09-25T21:34:26.542Z,97821.31
2022-09-25T21:36:53.185Z,97816.81
2022-09-25T21:39:21.181Z,97813.34
2022-09-25T21:41:48.497Z,97813.59
2022-09-25T21:44:20.461Z,97812.25
2022-09-25T21:46:47.122Z,97807.50
2022-09-25T21:49:17.257Z,97814.66
2022-09-25T21:51:45.639Z,97795.78
2022-09-25T21:54:16.687Z,97794.91
2022-09-25T21:56:48.701Z,97797.34
2022-09-25T21:59:15.621Z,97796.25
2022-09-25T22:01:42.972Z,97798.09
2022-09-25T22:04:13.482Z,97805.28
2022-09-25T22:06:44.466Z,97805.56
2022-09-25T22:09:15.463Z,97799.41
2022-09-25T22:11:43.388Z,97796.69
2022-09-25T22:14:15.520Z,97799.94
2022-09-25T22:16:44.521Z,97802.03
2022-09-25T22:19:30.744Z,97800.41
2022-09-25T22:21:59.348Z,97799.34
2022-09-25T22:24:26.715Z,97800.41
2022-09-25T22:26:54.699Z,97800.91
2022-09-25T22:29:21.715Z,97802.47
2022-09-25T22:31:48.475Z,97798.09
2022-09-25T22:34:18.029Z,97794.00
2022-09-25T22:36:45.026Z,97799.03
2022-09-25T22:39:14.421Z,97790.50
2022-09-25T22:41:41.623Z,97788.91
2022-09-25T22:44:08.265Z,97789.72
2022-09-25T22:46:35.020Z,97792.09
2022-09-25T22:49:02.825Z,97790.22
2022-09-25T22:51:29.637Z,97788.34
2022-09-25T22:53:56.356Z,97789.16
2022-09-25T22:56:24.820Z,97781.72
2022-09-25T22:58:56.950Z,97785.72
2022-09-25T23:01:26.419Z,97775.84
2022-09-25T23:03:55.321Z,97774.75
2022-09-25T23:06:22.651Z,97776.38
2022-09-25T23:08:54.942Z,97769.19
2022-09-25T23:11:22.332Z,97773.44
2022-09-25T23:13:50.668Z,97775.06
2022-09-25T23:16:18.504Z,97765.78
2022-09-25T23:18:45.260Z,97771.31
2022-09-25T23:21:11.881Z,97768.63
2022-09-25T23:23:38.698Z,97770.72
2022-09-25T23:26:07.189Z,97770.97
2022-09-25T23:28:36.502Z,97773.59
2022-09-25T23:31:08.337Z,97766.72
2022-09-25T23:33:36.097Z,97770.69
2022-09-25T23:36:06.301Z,97778.09
2022-09-25T23:38:34.070Z,97772.47
2022-09-25T23:41:01.080Z,97775.69
2022-09-25T23:43:28.004Z,97770.63
2022-09-25T23:45:55.755Z,97769.59
2022-09-25T23:48:22.788Z,97763.19
2022-09-25T23:50:51.287Z,97761.84
2022-09-25T23:53:18.082Z,97766.41
2022-09-25T23:55:44.743Z,97761.06
2022-09-25T23:58:11.414Z,97756.53
